Terminal Aerodrome Forecast
Issued by NWS Mobile, AL

Home | Current Version | Previous Version | Text Only | Print | Product List | Glossary On
Versions: 1 2 3 4 5 6 7 8 9 10 11 12 13 14 15 16 17 18
000
FTUS44 KMOB 161100 RRA
TAFPNS
TAF
KPNS 161159Z 1612/1712 VRB06KT P6SM SKC
     FM161500 07008KT P6SM SKC
     FM170000 14008KT P6SM SKC
     FM170700 09007KT P6SM BKN050=

USA.gov is the U.S. government's official web portal to all federal, state and local government web resources and services.